sensor_id;sensor_type;location;lat;lon;timestamp;P1;durP1;ratioP1;P2;durP2;ratioP2
16828;SDS011;8531;48.078;11.968;2023-02-15T00:01:34;51.13;;;10.77;;
16828;SDS011;8531;48.078;11.968;2023-02-15T00:04:00;28.73;;;10.20;;
16828;SDS011;8531;48.078;11.968;2023-02-15T00:06:26;24.33;;;9.77;;
16828;SDS011;8531;48.078;11.968;2023-02-15T00:08:53;44.93;;;11.07;;
16828;SDS011;8531;48.078;11.968;2023-02-15T00:11:19;16.70;;;9.17;;
16828;SDS011;8531;48.078;11.968;2023-02-15T00:14:14;30.57;;;10.57;;
16828;SDS011;8531;48.078;11.968;2023-02-15T00:16:48;23.40;;;9.70;;
16828;SDS011;8531;48.078;11.968;2023-02-15T00:19:16;40.43;;;10.17;;
16828;SDS011;8531;48.078;11.968;2023-02-15T00:21:43;32.33;;;10.27;;
16828;SDS011;8531;48.078;11.968;2023-02-15T00:24:10;30.90;;;10.17;;
16828;SDS011;8531;48.078;11.968;2023-02-15T00:26:38;27.30;;;10.90;;
16828;SDS011;8531;48.078;11.968;2023-02-15T00:29:05;20.97;;;10.77;;
16828;SDS011;8531;48.078;11.968;2023-02-15T00:31:32;30.60;;;10.80;;
16828;SDS011;8531;48.078;11.968;2023-02-15T00:34:06;17.83;;;10.17;;
16828;SDS011;8531;48.078;11.968;2023-02-15T00:36:35;16.13;;;9.73;;
16828;SDS011;8531;48.078;11.968;2023-02-15T00:39:01;12.90;;;8.83;;
16828;SDS011;8531;48.078;11.968;2023-02-15T00:41:29;13.07;;;9.13;;
16828;SDS011;8531;48.078;11.968;2023-02-15T00:43:56;40.20;;;11.73;;
16828;SDS011;8531;48.078;11.968;2023-02-15T00:46:21;31.80;;;10.67;;
16828;SDS011;8531;48.078;11.968;2023-02-15T00:48:47;14.87;;;9.90;;
16828;SDS011;8531;48.078;11.968;2023-02-15T00:51:13;15.40;;;9.87;;
16828;SDS011;8531;48.078;11.968;2023-02-15T00:53:38;32.83;;;11.33;;
16828;SDS011;8531;48.078;11.968;2023-02-15T00:56:04;38.53;;;11.13;;
16828;SDS011;8531;48.078;11.968;2023-02-15T00:58:30;14.93;;;9.87;;
16828;SDS011;8531;48.078;11.968;2023-02-15T01:01:01;13.63;;;9.57;;
16828;SDS011;8531;48.078;11.968;2023-02-15T01:03:31;13.87;;;10.27;;
16828;SDS011;8531;48.078;11.968;2023-02-15T01:05:58;21.87;;;10.43;;
16828;SDS011;8531;48.078;11.968;2023-02-15T01:08:23;14.63;;;8.60;;
16828;SDS011;8531;48.078;11.968;2023-02-15T01:10:49;20.37;;;10.90;;
16828;SDS011;8531;48.078;11.968;2023-02-15T01:13:15;15.80;;;9.87;;
16828;SDS011;8531;48.078;11.968;2023-02-15T01:15:42;26.80;;;11.63;;
16828;SDS011;8531;48.078;11.968;2023-02-15T01:18:09;52.23;;;12.47;;
16828;SDS011;8531;48.078;11.968;2023-02-15T01:20:36;22.73;;;11.70;;
16828;SDS011;8531;48.078;11.968;2023-02-15T01:23:04;19.80;;;10.63;;
16828;SDS011;8531;48.078;11.968;2023-02-15T01:25:32;15.27;;;9.50;;
16828;SDS011;8531;48.078;11.968;2023-02-15T01:27:58;15.37;;;9.67;;
16828;SDS011;8531;48.078;11.968;2023-02-15T01:30:24;17.70;;;10.80;;
16828;SDS011;8531;48.078;11.968;2023-02-15T01:32:50;15.10;;;10.17;;
16828;SDS011;8531;48.078;11.968;2023-02-15T01:35:15;15.47;;;10.43;;
16828;SDS011;8531;48.078;11.968;2023-02-15T01:37:41;16.03;;;10.00;;
16828;SDS011;8531;48.078;11.968;2023-02-15T01:40:08;35.40;;;11.67;;
16828;SDS011;8531;48.078;11.968;2023-02-15T01:42:37;21.53;;;12.13;;
16828;SDS011;8531;48.078;11.968;2023-02-15T01:45:04;14.90;;;9.70;;
16828;SDS011;8531;48.078;11.968;2023-02-15T01:50:33;16.77;;;10.57;;
16828;SDS011;8531;48.078;11.968;2023-02-15T01:53:08;19.07;;;11.23;;
16828;SDS011;8531;48.078;11.968;2023-02-15T01:55:59;25.07;;;11.30;;
16828;SDS011;8531;48.078;11.968;2023-02-15T01:58:46;35.67;;;12.93;;
16828;SDS011;8531;48.078;11.968;2023-02-15T02:01:12;19.03;;;10.87;;
16828;SDS011;8531;48.078;11.968;2023-02-15T02:06:43;33.40;;;12.83;;
16828;SDS011;8531;48.078;11.968;2023-02-15T02:09:11;68.13;;;14.17;;
16828;SDS011;8531;48.078;11.968;2023-02-15T02:11:38;27.00;;;12.57;;
16828;SDS011;8531;48.078;11.968;2023-02-15T02:14:05;20.90;;;12.50;;
16828;SDS011;8531;48.078;11.968;2023-02-15T02:25:11;23.27;;;11.53;;
16828;SDS011;8531;48.078;11.968;2023-02-15T02:33:53;14.47;;;10.17;;
16828;SDS011;8531;48.078;11.968;2023-02-15T02:39:47;14.53;;;9.60;;
16828;SDS011;8531;48.078;11.968;2023-02-15T02:44:23;19.80;;;11.30;;
16828;SDS011;8531;48.078;11.968;2023-02-15T02:47:09;13.83;;;10.33;;
16828;SDS011;8531;48.078;11.968;2023-02-15T02:49:38;20.50;;;11.03;;
16828;SDS011;8531;48.078;11.968;2023-02-15T02:52:06;20.70;;;12.07;;
16828;SDS011;8531;48.078;11.968;2023-02-15T02:54:53;39.97;;;11.37;;
16828;SDS011;8531;48.078;11.968;2023-02-15T02:57:20;15.00;;;10.07;;
16828;SDS011;8531;48.078;11.968;2023-02-15T02:59:48;24.93;;;11.10;;
16828;SDS011;8531;48.078;11.968;2023-02-15T03:02:17;21.03;;;9.73;;
16828;SDS011;8531;48.078;11.968;2023-02-15T03:04:57;15.17;;;10.47;;
16828;SDS011;8531;48.078;11.968;2023-02-15T03:07:29;25.17;;;11.60;;
16828;SDS011;8531;48.078;11.968;2023-02-15T03:09:57;16.73;;;9.60;;
16828;SDS011;8531;48.078;11.968;2023-02-15T03:12:32;15.70;;;10.77;;
16828;SDS011;8531;48.078;11.968;2023-02-15T03:17:35;13.70;;;9.23;;
16828;SDS011;8531;48.078;11.968;2023-02-15T03:20:06;19.80;;;10.60;;
16828;SDS011;8531;48.078;11.968;2023-02-15T03:22:48;14.43;;;9.50;;
16828;SDS011;8531;48.078;11.968;2023-02-15T03:25:25;18.97;;;10.17;;
16828;SDS011;8531;48.078;11.968;2023-02-15T03:27:58;18.87;;;9.57;;
16828;SDS011;8531;48.078;11.968;2023-02-15T03:30:26;26.13;;;11.00;;
16828;SDS011;8531;48.078;11.968;2023-02-15T03:32:54;13.37;;;10.13;;
16828;SDS011;8531;48.078;11.968;2023-02-15T03:35:24;15.67;;;8.87;;
16828;SDS011;8531;48.078;11.968;2023-02-15T03:37:59;12.67;;;9.00;;
16828;SDS011;8531;48.078;11.968;2023-02-15T03:40:36;13.70;;;8.90;;
16828;SDS011;8531;48.078;11.968;2023-02-15T03:46:07;25.37;;;10.33;;
16828;SDS011;8531;48.078;11.968;2023-02-15T03:48:39;12.27;;;9.27;;
16828;SDS011;8531;48.078;11.968;2023-02-15T03:51:09;59.50;;;12.27;;
16828;SDS011;8531;48.078;11.968;2023-02-15T03:53:57;39.13;;;10.90;;
16828;SDS011;8531;48.078;11.968;2023-02-15T03:57:04;25.57;;;11.73;;
16828;SDS011;8531;48.078;11.968;2023-02-15T03:59:50;29.90;;;15.40;;
16828;SDS011;8531;48.078;11.968;2023-02-15T04:05:42;25.30;;;11.50;;
16828;SDS011;8531;48.078;11.968;2023-02-15T04:08:09;46.73;;;10.67;;
16828;SDS011;8531;48.078;11.968;2023-02-15T04:10:35;17.13;;;10.03;;
16828;SDS011;8531;48.078;11.968;2023-02-15T04:13:24;26.00;;;12.00;;
16828;SDS011;8531;48.078;11.968;2023-02-15T04:15:55;13.97;;;10.00;;
16828;SDS011;8531;48.078;11.968;2023-02-15T04:18:37;17.10;;;8.97;;
16828;SDS011;8531;48.078;11.968;2023-02-15T04:21:27;18.70;;;8.80;;
16828;SDS011;8531;48.078;11.968;2023-02-15T04:24:13;12.10;;;8.57;;
16828;SDS011;8531;48.078;11.968;2023-02-15T04:26:59;16.83;;;10.17;;
16828;SDS011;8531;48.078;11.968;2023-02-15T04:29:26;11.63;;;8.60;;
16828;SDS011;8531;48.078;11.968;2023-02-15T04:31:53;12.00;;;8.97;;
16828;SDS011;8531;48.078;11.968;2023-02-15T04:34:20;18.20;;;9.73;;
16828;SDS011;8531;48.078;11.968;2023-02-15T04:36:46;33.90;;;11.00;;
16828;SDS011;8531;48.078;11.968;2023-02-15T04:39:12;31.03;;;9.97;;
16828;SDS011;8531;48.078;11.968;2023-02-15T04:41:39;23.13;;;9.87;;
16828;SDS011;8531;48.078;11.968;2023-02-15T04:44:05;30.53;;;10.90;;
16828;SDS011;8531;48.078;11.968;2023-02-15T04:46:31;11.23;;;8.37;;
16828;SDS011;8531;48.078;11.968;2023-02-15T04:48:57;21.90;;;9.40;;
16828;SDS011;8531;48.078;11.968;2023-02-15T04:51:23;14.63;;;10.77;;
16828;SDS011;8531;48.078;11.968;2023-02-15T04:53:49;44.20;;;10.87;;
16828;SDS011;8531;48.078;11.968;2023-02-15T04:56:17;14.77;;;8.80;;
16828;SDS011;8531;48.078;11.968;2023-02-15T04:58:43;11.27;;;8.80;;
16828;SDS011;8531;48.078;11.968;2023-02-15T05:01:09;16.87;;;8.50;;
16828;SDS011;8531;48.078;11.968;2023-02-15T05:03:35;13.80;;;8.57;;
16828;SDS011;8531;48.078;11.968;2023-02-15T05:06:02;28.10;;;9.60;;
16828;SDS011;8531;48.078;11.968;2023-02-15T05:08:28;15.73;;;8.80;;
16828;SDS011;8531;48.078;11.968;2023-02-15T05:10:53;25.43;;;10.37;;
16828;SDS011;8531;48.078;11.968;2023-02-15T05:13:19;14.93;;;9.03;;
16828;SDS011;8531;48.078;11.968;2023-02-15T05:15:48;15.27;;;9.33;;
16828;SDS011;8531;48.078;11.968;2023-02-15T05:18:17;34.63;;;11.30;;
16828;SDS011;8531;48.078;11.968;2023-02-15T05:20:43;16.93;;;10.70;;
16828;SDS011;8531;48.078;11.968;2023-02-15T05:23:09;21.80;;;11.93;;
16828;SDS011;8531;48.078;11.968;2023-02-15T05:25:35;17.50;;;10.37;;
16828;SDS011;8531;48.078;11.968;2023-02-15T05:28:19;21.67;;;10.47;;
16828;SDS011;8531;48.078;11.968;2023-02-15T05:30:47;15.63;;;9.10;;
16828;SDS011;8531;48.078;11.968;2023-02-15T05:33:27;25.07;;;10.73;;
16828;SDS011;8531;48.078;11.968;2023-02-15T05:35:53;21.70;;;10.67;;
16828;SDS011;8531;48.078;11.968;2023-02-15T05:38:19;33.77;;;11.83;;
16828;SDS011;8531;48.078;11.968;2023-02-15T05:40:44;39.47;;;10.87;;
16828;SDS011;8531;48.078;11.968;2023-02-15T05:43:10;44.03;;;11.57;;
16828;SDS011;8531;48.078;11.968;2023-02-15T05:45:36;39.43;;;11.70;;
16828;SDS011;8531;48.078;11.968;2023-02-15T05:48:01;12.90;;;8.63;;
16828;SDS011;8531;48.078;11.968;2023-02-15T05:50:27;36.60;;;11.07;;
16828;SDS011;8531;48.078;11.968;2023-02-15T05:52:53;40.43;;;11.10;;
16828;SDS011;8531;48.078;11.968;2023-02-15T05:55:19;52.93;;;11.43;;
16828;SDS011;8531;48.078;11.968;2023-02-15T05:57:44;13.03;;;8.77;;
16828;SDS011;8531;48.078;11.968;2023-02-15T06:00:11;16.50;;;8.93;;
16828;SDS011;8531;48.078;11.968;2023-02-15T06:02:38;26.33;;;10.37;;
16828;SDS011;8531;48.078;11.968;2023-02-15T06:05:05;32.40;;;11.07;;
16828;SDS011;8531;48.078;11.968;2023-02-15T06:07:31;32.67;;;11.33;;
16828;SDS011;8531;48.078;11.968;2023-02-15T06:09:57;19.80;;;10.40;;
16828;SDS011;8531;48.078;11.968;2023-02-15T06:12:23;33.37;;;10.23;;
16828;SDS011;8531;48.078;11.968;2023-02-15T06:14:49;33.07;;;9.83;;
16828;SDS011;8531;48.078;11.968;2023-02-15T06:17:15;28.23;;;9.80;;
16828;SDS011;8531;48.078;11.968;2023-02-15T06:19:41;40.77;;;11.10;;
16828;SDS011;8531;48.078;11.968;2023-02-15T06:22:07;27.53;;;10.83;;
16828;SDS011;8531;48.078;11.968;2023-02-15T06:24:33;30.10;;;10.97;;
16828;SDS011;8531;48.078;11.968;2023-02-15T06:26:58;30.33;;;11.57;;
16828;SDS011;8531;48.078;11.968;2023-02-15T06:29:24;28.00;;;12.47;;
16828;SDS011;8531;48.078;11.968;2023-02-15T06:31:49;27.30;;;11.77;;
16828;SDS011;8531;48.078;11.968;2023-02-15T06:34:15;26.57;;;10.47;;
16828;SDS011;8531;48.078;11.968;2023-02-15T06:36:41;28.13;;;11.77;;
16828;SDS011;8531;48.078;11.968;2023-02-15T06:39:07;23.30;;;12.30;;
16828;SDS011;8531;48.078;11.968;2023-02-15T06:41:32;29.80;;;10.33;;
16828;SDS011;8531;48.078;11.968;2023-02-15T06:43:58;17.50;;;11.80;;
16828;SDS011;8531;48.078;11.968;2023-02-15T06:46:24;22.80;;;11.70;;
16828;SDS011;8531;48.078;11.968;2023-02-15T06:48:49;19.57;;;12.10;;
16828;SDS011;8531;48.078;11.968;2023-02-15T06:51:15;25.10;;;10.83;;
16828;SDS011;8531;48.078;11.968;2023-02-15T06:53:41;19.73;;;9.80;;
16828;SDS011;8531;48.078;11.968;2023-02-15T06:56:08;17.63;;;11.53;;
16828;SDS011;8531;48.078;11.968;2023-02-15T06:58:35;26.80;;;10.90;;
16828;SDS011;8531;48.078;11.968;2023-02-15T07:01:04;23.20;;;11.13;;
16828;SDS011;8531;48.078;11.968;2023-02-15T07:03:32;21.43;;;11.33;;
16828;SDS011;8531;48.078;11.968;2023-02-15T07:05:59;19.87;;;10.13;;
16828;SDS011;8531;48.078;11.968;2023-02-15T07:08:26;17.10;;;11.43;;
16828;SDS011;8531;48.078;11.968;2023-02-15T07:10:52;19.73;;;9.83;;
16828;SDS011;8531;48.078;11.968;2023-02-15T07:13:19;18.80;;;9.03;;
16828;SDS011;8531;48.078;11.968;2023-02-15T07:15:46;17.40;;;9.77;;
16828;SDS011;8531;48.078;11.968;2023-02-15T07:18:12;15.60;;;9.13;;
16828;SDS011;8531;48.078;11.968;2023-02-15T07:20:38;16.07;;;8.97;;
16828;SDS011;8531;48.078;11.968;2023-02-15T07:23:06;26.20;;;11.17;;
16828;SDS011;8531;48.078;11.968;2023-02-15T07:25:33;18.73;;;10.17;;
16828;SDS011;8531;48.078;11.968;2023-02-15T07:27:59;21.87;;;9.60;;
16828;SDS011;8531;48.078;11.968;2023-02-15T07:30:26;18.83;;;10.43;;
16828;SDS011;8531;48.078;11.968;2023-02-15T07:32:58;13.23;;;9.47;;
16828;SDS011;8531;48.078;11.968;2023-02-15T07:35:46;17.83;;;10.57;;
16828;SDS011;8531;48.078;11.968;2023-02-15T07:38:16;12.27;;;8.70;;
16828;SDS011;8531;48.078;11.968;2023-02-15T07:40:43;16.73;;;10.20;;
16828;SDS011;8531;48.078;11.968;2023-02-15T07:43:09;16.93;;;10.43;;
16828;SDS011;8531;48.078;11.968;2023-02-15T07:45:35;15.23;;;9.70;;
16828;SDS011;8531;48.078;11.968;2023-02-15T07:48:01;13.47;;;9.20;;
16828;SDS011;8531;48.078;11.968;2023-02-15T07:50:27;14.93;;;9.87;;
16828;SDS011;8531;48.078;11.968;2023-02-15T07:52:53;12.27;;;7.93;;
16828;SDS011;8531;48.078;11.968;2023-02-15T07:55:19;28.93;;;10.17;;
16828;SDS011;8531;48.078;11.968;2023-02-15T07:57:45;18.93;;;9.40;;
16828;SDS011;8531;48.078;11.968;2023-02-15T08:00:13;18.17;;;9.43;;
16828;SDS011;8531;48.078;11.968;2023-02-15T08:02:40;13.93;;;9.80;;
16828;SDS011;8531;48.078;11.968;2023-02-15T08:05:06;22.10;;;10.30;;
16828;SDS011;8531;48.078;11.968;2023-02-15T08:07:32;13.07;;;9.13;;
16828;SDS011;8531;48.078;11.968;2023-02-15T08:09:58;12.03;;;8.30;;
16828;SDS011;8531;48.078;11.968;2023-02-15T08:12:27;12.63;;;8.83;;
16828;SDS011;8531;48.078;11.968;2023-02-15T08:14:53;12.40;;;8.17;;
16828;SDS011;8531;48.078;11.968;2023-02-15T08:17:18;18.47;;;9.93;;
16828;SDS011;8531;48.078;11.968;2023-02-15T08:19:44;17.60;;;9.50;;
16828;SDS011;8531;48.078;11.968;2023-02-15T08:22:12;13.50;;;9.30;;
16828;SDS011;8531;48.078;11.968;2023-02-15T08:24:39;13.00;;;7.60;;
16828;SDS011;8531;48.078;11.968;2023-02-15T08:27:06;12.93;;;8.43;;
16828;SDS011;8531;48.078;11.968;2023-02-15T08:29:34;13.97;;;9.07;;
16828;SDS011;8531;48.078;11.968;2023-02-15T08:32:02;12.10;;;9.20;;
16828;SDS011;8531;48.078;11.968;2023-02-15T08:34:31;11.43;;;8.83;;
16828;SDS011;8531;48.078;11.968;2023-02-15T08:37:01;13.00;;;8.70;;
16828;SDS011;8531;48.078;11.968;2023-02-15T08:39:27;10.23;;;7.67;;
16828;SDS011;8531;48.078;11.968;2023-02-15T08:41:53;12.23;;;8.93;;
16828;SDS011;8531;48.078;11.968;2023-02-15T08:44:19;10.93;;;8.10;;
16828;SDS011;8531;48.078;11.968;2023-02-15T08:46:46;17.33;;;8.97;;
16828;SDS011;8531;48.078;11.968;2023-02-15T08:49:14;10.47;;;7.83;;
16828;SDS011;8531;48.078;11.968;2023-02-15T08:51:42;12.90;;;9.33;;
16828;SDS011;8531;48.078;11.968;2023-02-15T08:54:09;15.73;;;9.30;;
16828;SDS011;8531;48.078;11.968;2023-02-15T08:56:38;10.73;;;8.10;;
16828;SDS011;8531;48.078;11.968;2023-02-15T08:59:05;13.73;;;9.80;;
16828;SDS011;8531;48.078;11.968;2023-02-15T09:01:33;13.50;;;7.63;;
16828;SDS011;8531;48.078;11.968;2023-02-15T09:04:04;10.40;;;7.83;;
16828;SDS011;8531;48.078;11.968;2023-02-15T09:06:31;7.67;;;6.47;;
16828;SDS011;8531;48.078;11.968;2023-02-15T09:08:57;11.93;;;8.27;;
16828;SDS011;8531;48.078;11.968;2023-02-15T09:11:24;11.70;;;8.00;;
16828;SDS011;8531;48.078;11.968;2023-02-15T09:13:58;11.97;;;8.23;;
16828;SDS011;8531;48.078;11.968;2023-02-15T09:16:26;15.53;;;8.80;;
16828;SDS011;8531;48.078;11.968;2023-02-15T09:18:54;11.07;;;8.43;;
16828;SDS011;8531;48.078;11.968;2023-02-15T09:21:21;9.93;;;7.50;;
16828;SDS011;8531;48.078;11.968;2023-02-15T09:23:49;10.80;;;8.33;;
16828;SDS011;8531;48.078;11.968;2023-02-15T09:26:18;11.80;;;9.23;;
16828;SDS011;8531;48.078;11.968;2023-02-15T09:28:45;11.70;;;8.60;;
16828;SDS011;8531;48.078;11.968;2023-02-15T09:31:12;12.47;;;9.17;;
16828;SDS011;8531;48.078;11.968;2023-02-15T09:33:40;11.10;;;7.77;;
16828;SDS011;8531;48.078;11.968;2023-02-15T09:36:17;11.23;;;8.87;;
16828;SDS011;8531;48.078;11.968;2023-02-15T09:38:46;11.40;;;8.83;;
16828;SDS011;8531;48.078;11.968;2023-02-15T10:11:17;10.33;;;8.20;;
16828;SDS011;8531;48.078;11.968;2023-02-15T10:19:25;13.87;;;8.60;;
16828;SDS011;8531;48.078;11.968;2023-02-15T10:24:46;15.77;;;9.00;;
16828;SDS011;8531;48.078;11.968;2023-02-15T10:27:48;20.90;;;8.67;;
16828;SDS011;8531;48.078;11.968;2023-02-15T10:30:15;14.43;;;9.23;;
16828;SDS011;8531;48.078;11.968;2023-02-15T10:35:52;13.50;;;8.87;;
16828;SDS011;8531;48.078;11.968;2023-02-15T10:38:51;16.87;;;8.67;;
16828;SDS011;8531;48.078;11.968;2023-02-15T10:41:51;13.00;;;8.87;;
16828;SDS011;8531;48.078;11.968;2023-02-15T11:00:47;11.57;;;8.77;;
16828;SDS011;8531;48.078;11.968;2023-02-15T11:06:29;12.07;;;9.10;;
16828;SDS011;8531;48.078;11.968;2023-02-15T11:08:59;10.13;;;8.10;;
16828;SDS011;8531;48.078;11.968;2023-02-15T11:11:34;19.50;;;10.27;;
16828;SDS011;8531;48.078;11.968;2023-02-15T11:17:10;21.13;;;9.20;;
16828;SDS011;8531;48.078;11.968;2023-02-15T11:22:17;20.33;;;10.40;;
16828;SDS011;8531;48.078;11.968;2023-02-15T11:24:43;15.07;;;9.48;;
16828;SDS011;8531;48.078;11.968;2023-02-15T11:35:31;45.30;;;11.82;;
16828;SDS011;8531;48.078;11.968;2023-02-15T11:40:49;10.27;;;8.02;;
16828;SDS011;8531;48.078;11.968;2023-02-15T11:46:07;12.65;;;9.35;;
16828;SDS011;8531;48.078;11.968;2023-02-15T11:48:36;11.55;;;8.75;;
16828;SDS011;8531;48.078;11.968;2023-02-15T11:51:02;14.93;;;10.48;;
16828;SDS011;8531;48.078;11.968;2023-02-15T11:53:31;11.20;;;8.93;;
16828;SDS011;8531;48.078;11.968;2023-02-15T11:55:58;11.70;;;9.07;;
16828;SDS011;8531;48.078;11.968;2023-02-15T12:03:41;9.73;;;8.55;;
16828;SDS011;8531;48.078;11.968;2023-02-15T12:06:20;12.95;;;9.40;;
16828;SDS011;8531;48.078;11.968;2023-02-15T12:11:51;23.33;;;11.00;;
16828;SDS011;8531;48.078;11.968;2023-02-15T12:14:17;17.63;;;9.57;;
16828;SDS011;8531;48.078;11.968;2023-02-15T12:16:46;14.75;;;10.70;;
16828;SDS011;8531;48.078;11.968;2023-02-15T12:22:05;12.50;;;9.30;;
16828;SDS011;8531;48.078;11.968;2023-02-15T12:24:46;11.55;;;9.85;;
16828;SDS011;8531;48.078;11.968;2023-02-15T12:29:46;23.38;;;10.45;;
16828;SDS011;8531;48.078;11.968;2023-02-15T12:32:47;17.73;;;9.70;;
16828;SDS011;8531;48.078;11.968;2023-02-15T12:37:54;14.27;;;9.32;;
16828;SDS011;8531;48.078;11.968;2023-02-15T12:40:28;40.75;;;12.65;;
16828;SDS011;8531;48.078;11.968;2023-02-15T12:42:55;10.50;;;8.73;;
16828;SDS011;8531;48.078;11.968;2023-02-15T12:45:29;16.60;;;10.55;;
16828;SDS011;8531;48.078;11.968;2023-02-15T12:48:12;12.68;;;9.25;;
16828;SDS011;8531;48.078;11.968;2023-02-15T12:50:43;18.63;;;10.80;;
16828;SDS011;8531;48.078;11.968;2023-02-15T12:53:17;28.80;;;11.73;;
16828;SDS011;8531;48.078;11.968;2023-02-15T12:58:51;13.57;;;9.93;;
16828;SDS011;8531;48.078;11.968;2023-02-15T13:01:31;13.32;;;9.52;;
16828;SDS011;8531;48.078;11.968;2023-02-15T13:04:04;11.15;;;9.55;;
16828;SDS011;8531;48.078;11.968;2023-02-15T13:06:32;12.32;;;9.77;;
16828;SDS011;8531;48.078;11.968;2023-02-15T13:09:14;21.80;;;10.65;;
16828;SDS011;8531;48.078;11.968;2023-02-15T13:11:43;21.50;;;9.93;;
16828;SDS011;8531;48.078;11.968;2023-02-15T13:14:25;14.82;;;9.85;;
16828;SDS011;8531;48.078;11.968;2023-02-15T13:16:56;13.38;;;8.68;;
16828;SDS011;8531;48.078;11.968;2023-02-15T13:19:35;13.30;;;9.60;;
16828;SDS011;8531;48.078;11.968;2023-02-15T13:22:06;12.45;;;10.05;;
16828;SDS011;8531;48.078;11.968;2023-02-15T13:27:16;9.95;;;8.95;;
16828;SDS011;8531;48.078;11.968;2023-02-15T13:29:46;17.35;;;10.60;;
16828;SDS011;8531;48.078;11.968;2023-02-15T13:32:24;11.38;;;9.23;;
16828;SDS011;8531;48.078;11.968;2023-02-15T13:34:50;11.98;;;10.00;;
16828;SDS011;8531;48.078;11.968;2023-02-15T13:39:56;14.25;;;10.63;;
16828;SDS011;8531;48.078;11.968;2023-02-15T13:42:38;12.23;;;10.40;;
16828;SDS011;8531;48.078;11.968;2023-02-15T13:48:14;14.70;;;9.77;;
16828;SDS011;8531;48.078;11.968;2023-02-15T14:09:39;14.88;;;11.18;;
16828;SDS011;8531;48.078;11.968;2023-02-15T14:31:52;9.95;;;8.85;;
16828;SDS011;8531;48.078;11.968;2023-02-15T14:36:50;10.93;;;9.75;;
16828;SDS011;8531;48.078;11.968;2023-02-15T14:45:28;11.13;;;8.60;;
16828;SDS011;8531;48.078;11.968;2023-02-15T14:48:12;12.50;;;9.40;;
16828;SDS011;8531;48.078;11.968;2023-02-15T14:50:47;10.20;;;8.60;;
16828;SDS011;8531;48.078;11.968;2023-02-15T14:53:17;12.13;;;9.50;;
16828;SDS011;8531;48.078;11.968;2023-02-15T14:58:54;12.13;;;9.18;;
16828;SDS011;8531;48.078;11.968;2023-02-15T15:01:28;16.42;;;10.10;;
16828;SDS011;8531;48.078;11.968;2023-02-15T15:04:42;13.30;;;8.68;;
16828;SDS011;8531;48.078;11.968;2023-02-15T15:07:01;14.68;;;9.70;;
16828;SDS011;8531;48.078;11.968;2023-02-15T15:09:58;14.70;;;9.73;;
16828;SDS011;8531;48.078;11.968;2023-02-15T15:14:57;10.23;;;9.10;;
16828;SDS011;8531;48.078;11.968;2023-02-15T15:19:58;11.63;;;9.25;;
16828;SDS011;8531;48.078;11.968;2023-02-15T15:22:27;12.55;;;8.95;;
16828;SDS011;8531;48.078;11.968;2023-02-15T15:24:59;10.30;;;8.82;;
16828;SDS011;8531;48.078;11.968;2023-02-15T15:41:07;10.27;;;8.23;;
16828;SDS011;8531;48.078;11.968;2023-02-15T15:43:52;9.32;;;8.27;;
16828;SDS011;8531;48.078;11.968;2023-02-15T15:47:25;9.50;;;8.50;;
16828;SDS011;8531;48.078;11.968;2023-02-15T15:49:39;15.10;;;9.52;;
16828;SDS011;8531;48.078;11.968;2023-02-15T15:52:12;11.07;;;8.45;;
16828;SDS011;8531;48.078;11.968;2023-02-15T15:54:40;13.80;;;7.90;;
16828;SDS011;8531;48.078;11.968;2023-02-15T15:57:12;10.07;;;8.38;;
16828;SDS011;8531;48.078;11.968;2023-02-15T16:00:00;10.80;;;8.40;;
16828;SDS011;8531;48.078;11.968;2023-02-15T16:02:26;11.80;;;9.95;;
16828;SDS011;8531;48.078;11.968;2023-02-15T16:04:52;13.60;;;9.07;;
16828;SDS011;8531;48.078;11.968;2023-02-15T16:12:22;13.75;;;10.18;;
16828;SDS011;8531;48.078;11.968;2023-02-15T16:14:49;12.40;;;9.93;;
16828;SDS011;8531;48.078;11.968;2023-02-15T16:17:19;14.20;;;10.93;;
16828;SDS011;8531;48.078;11.968;2023-02-15T16:19:48;12.40;;;11.00;;
16828;SDS011;8531;48.078;11.968;2023-02-15T16:22:18;13.20;;;10.10;;
16828;SDS011;8531;48.078;11.968;2023-02-15T16:25:05;11.93;;;9.50;;
16828;SDS011;8531;48.078;11.968;2023-02-15T16:27:45;12.00;;;9.55;;
16828;SDS011;8531;48.078;11.968;2023-02-15T16:30:31;12.43;;;10.30;;
16828;SDS011;8531;48.078;11.968;2023-02-15T16:33:06;13.15;;;9.77;;
16828;SDS011;8531;48.078;11.968;2023-02-15T16:35:34;12.50;;;9.98;;
16828;SDS011;8531;48.078;11.968;2023-02-15T16:38:01;14.00;;;11.05;;
16828;SDS011;8531;48.078;11.968;2023-02-15T16:40:33;12.07;;;9.18;;
16828;SDS011;8531;48.078;11.968;2023-02-15T16:43:01;11.90;;;9.75;;
16828;SDS011;8531;48.078;11.968;2023-02-15T16:45:32;12.52;;;9.63;;
16828;SDS011;8531;48.078;11.968;2023-02-15T16:48:02;13.35;;;10.35;;
16828;SDS011;8531;48.078;11.968;2023-02-15T16:50:36;12.75;;;8.85;;
16828;SDS011;8531;48.078;11.968;2023-02-15T16:53:04;11.60;;;9.48;;
16828;SDS011;8531;48.078;11.968;2023-02-15T16:55:38;10.70;;;9.00;;
16828;SDS011;8531;48.078;11.968;2023-02-15T16:58:07;11.30;;;10.10;;
16828;SDS011;8531;48.078;11.968;2023-02-15T17:00:38;11.77;;;9.30;;
16828;SDS011;8531;48.078;11.968;2023-02-15T17:05:45;11.60;;;10.13;;
16828;SDS011;8531;48.078;11.968;2023-02-15T17:08:24;12.05;;;10.10;;
16828;SDS011;8531;48.078;11.968;2023-02-15T17:13:25;12.30;;;10.27;;
16828;SDS011;8531;48.078;11.968;2023-02-15T17:18:22;15.02;;;11.00;;
16828;SDS011;8531;48.078;11.968;2023-02-15T17:20:50;13.40;;;10.25;;
16828;SDS011;8531;48.078;11.968;2023-02-15T17:25:50;16.15;;;12.48;;
16828;SDS011;8531;48.078;11.968;2023-02-15T17:28:23;17.17;;;13.02;;
16828;SDS011;8531;48.078;11.968;2023-02-15T17:30:51;20.33;;;14.50;;
16828;SDS011;8531;48.078;11.968;2023-02-15T17:36:11;20.60;;;15.27;;
16828;SDS011;8531;48.078;11.968;2023-02-15T17:39:06;19.63;;;14.38;;
16828;SDS011;8531;48.078;11.968;2023-02-15T17:41:45;24.77;;;16.25;;
16828;SDS011;8531;48.078;11.968;2023-02-15T17:44:12;26.90;;;16.77;;
16828;SDS011;8531;48.078;11.968;2023-02-15T17:46:40;20.95;;;15.23;;
16828;SDS011;8531;48.078;11.968;2023-02-15T17:49:11;19.67;;;14.10;;
16828;SDS011;8531;48.078;11.968;2023-02-15T17:51:45;19.73;;;14.40;;
16828;SDS011;8531;48.078;11.968;2023-02-15T17:54:11;18.40;;;13.35;;
16828;SDS011;8531;48.078;11.968;2023-02-15T17:56:55;20.13;;;13.45;;
16828;SDS011;8531;48.078;11.968;2023-02-15T17:59:27;19.95;;;15.20;;
16828;SDS011;8531;48.078;11.968;2023-02-15T18:01:52;23.75;;;16.50;;
16828;SDS011;8531;48.078;11.968;2023-02-15T18:04:37;20.42;;;15.23;;
16828;SDS011;8531;48.078;11.968;2023-02-15T18:07:21;18.23;;;14.48;;
16828;SDS011;8531;48.078;11.968;2023-02-15T18:10:13;20.17;;;14.50;;
16828;SDS011;8531;48.078;11.968;2023-02-15T18:12:58;16.92;;;13.50;;
16828;SDS011;8531;48.078;11.968;2023-02-15T18:15:24;22.15;;;16.23;;
16828;SDS011;8531;48.078;11.968;2023-02-15T18:17:50;19.98;;;16.13;;
16828;SDS011;8531;48.078;11.968;2023-02-15T18:20:20;19.20;;;14.05;;
16828;SDS011;8531;48.078;11.968;2023-02-15T18:22:51;20.52;;;16.73;;
16828;SDS011;8531;48.078;11.968;2023-02-15T18:25:18;20.00;;;15.38;;
16828;SDS011;8531;48.078;11.968;2023-02-15T18:27:45;17.13;;;13.98;;
16828;SDS011;8531;48.078;11.968;2023-02-15T18:30:14;16.40;;;13.93;;
16828;SDS011;8531;48.078;11.968;2023-02-15T18:32:42;22.25;;;17.00;;
16828;SDS011;8531;48.078;11.968;2023-02-15T18:35:13;27.45;;;21.38;;
16828;SDS011;8531;48.078;11.968;2023-02-15T18:37:40;24.75;;;19.55;;
16828;SDS011;8531;48.078;11.968;2023-02-15T18:40:12;25.05;;;18.02;;